createdAt,value
2022-11-25T00:00:54.268Z,12.20
2022-11-25T00:01:55.156Z,9.20
2022-11-25T00:02:56.060Z,9.60
2022-11-25T00:03:56.866Z,9.20
2022-11-25T00:04:57.735Z,12.50
2022-11-25T00:05:58.566Z,11.50
2022-11-25T00:06:59.416Z,15.60
2022-11-25T00:08:00.293Z,14.50
2022-11-25T00:09:01.084Z,11.60
2022-11-25T00:10:01.934Z,15.90
2022-11-25T00:11:02.788Z,12.40
2022-11-25T00:12:03.641Z,10.80
2022-11-25T00:13:04.494Z,13.10
2022-11-25T00:14:05.343Z,11.20
2022-11-25T00:15:06.192Z,11.50
2022-11-25T00:16:07.088Z,16.10
2022-11-25T00:17:07.919Z,11.70
2022-11-25T00:18:08.765Z,11.40
2022-11-25T00:19:09.652Z,10.80
2022-11-25T00:20:10.503Z,11.10
2022-11-25T00:21:16.256Z,12.60
2022-11-25T00:22:12.108Z,10.60
2022-11-25T00:23:12.996Z,15.60
2022-11-25T00:24:13.772Z,10.50
2022-11-25T00:25:14.618Z,14.10
2022-11-25T00:26:15.474Z,15.70
2022-11-25T00:27:16.326Z,16.40
2022-11-25T00:28:17.251Z,12.70
2022-11-25T00:29:18.101Z,8.80
2022-11-25T00:30:18.968Z,12.60
2022-11-25T00:31:19.835Z,11.80
2022-11-25T00:32:20.671Z,13.60
2022-11-25T00:33:21.530Z,10.00
2022-11-25T00:34:22.380Z,12.70
2022-11-25T00:35:23.250Z,10.60
2022-11-25T00:36:24.082Z,12.10
2022-11-25T00:37:24.933Z,10.50
2022-11-25T00:38:25.828Z,10.30
2022-11-25T00:39:26.608Z,14.90
2022-11-25T00:40:27.457Z,12.40
2022-11-25T00:41:28.306Z,9.60
2022-11-25T00:42:29.183Z,12.50
2022-11-25T00:43:30.045Z,10.30
2022-11-25T00:44:30.896Z,10.80
2022-11-25T00:45:31.776Z,11.70
2022-11-25T00:46:32.598Z,11.40
2022-11-25T00:47:33.452Z,11.50
2022-11-25T00:48:34.313Z,9.80
2022-11-25T00:49:35.165Z,10.00
2022-11-25T00:50:36.039Z,10.30
2022-11-25T00:51:36.866Z,9.40
2022-11-25T00:52:37.716Z,11.80
2022-11-25T00:53:38.608Z,12.90
2022-11-25T00:54:39.399Z,10.30
2022-11-25T00:55:40.250Z,13.10
2022-11-25T00:56:41.100Z,9.80
2022-11-25T00:57:41.951Z,12.00
2022-11-25T00:58:42.810Z,15.50
2022-11-25T00:59:43.660Z,14.20
2022-11-25T01:00:44.529Z,8.70
2022-11-25T01:01:45.401Z,13.60
2022-11-25T01:02:46.295Z,13.20
2022-11-25T01:03:47.099Z,10.80
2022-11-25T01:04:47.948Z,13.60
2022-11-25T01:05:48.820Z,10.10
2022-11-25T01:06:49.648Z,13.90
2022-11-25T01:07:50.572Z,9.30
2022-11-25T01:08:51.765Z,13.50
2022-11-25T01:09:52.038Z,12.10
2022-11-25T01:10:52.887Z,10.90
2022-11-25T01:11:53.736Z,9.30
2022-11-25T01:12:54.586Z,10.80
2022-11-25T01:14:00.624Z,13.10
2022-11-25T01:14:57.194Z,9.80
2022-11-25T01:15:57.043Z,11.10
2022-11-25T01:16:57.896Z,12.30
2022-11-25T01:17:58.743Z,12.30
2022-11-25T01:18:59.612Z,10.20
2022-11-25T01:20:00.474Z,10.50
2022-11-25T01:21:01.333Z,8.70
2022-11-25T01:22:02.163Z,11.60
2022-11-25T01:23:03.014Z,10.30
2022-11-25T01:24:04.273Z,10.50
2022-11-25T01:25:04.545Z,14.10
2022-11-25T01:26:05.396Z,12.70
2022-11-25T01:27:06.256Z,12.60
2022-11-25T01:28:07.111Z,11.00
2022-11-25T01:29:08.243Z,12.60
2022-11-25T01:30:08.658Z,12.10
2022-11-25T01:31:09.534Z,10.80
2022-11-25T01:32:10.453Z,11.50
2022-11-25T01:33:11.255Z,10.20
2022-11-25T01:34:12.113Z,9.80
2022-11-25T01:35:12.981Z,11.40
2022-11-25T01:36:13.851Z,11.60
2022-11-25T01:37:14.686Z,9.50
2022-11-25T01:38:15.544Z,9.70
2022-11-25T01:39:16.763Z,12.60
2022-11-25T01:40:17.034Z,9.10
2022-11-25T01:41:17.886Z,12.00
2022-11-25T01:42:18.734Z,9.80
2022-11-25T01:43:19.590Z,10.30
2022-11-25T01:44:20.740Z,12.00
2022-11-25T01:45:21.091Z,14.30
2022-11-25T01:46:22.111Z,12.90
2022-11-25T01:47:22.432Z,11.40
2022-11-25T01:48:23.281Z,14.70
2022-11-25T01:49:24.149Z,11.30
2022-11-25T01:50:25.001Z,12.70
2022-11-25T01:51:25.870Z,12.00
2022-11-25T01:52:26.704Z,16.40
2022-11-25T01:53:27.552Z,10.10
2022-11-25T01:54:28.427Z,10.40
2022-11-25T01:55:29.256Z,12.80
2022-11-25T01:56:30.102Z,11.40
2022-11-25T01:57:30.952Z,9.00
2022-11-25T01:58:31.801Z,8.50
2022-11-25T01:59:32.660Z,9.40
2022-11-25T02:00:33.541Z,10.90
2022-11-25T02:01:34.469Z,11.10
2022-11-25T02:02:35.352Z,14.40
2022-11-25T02:03:36.179Z,9.00
2022-11-25T02:04:37.275Z,17.40
2022-11-25T02:05:37.705Z,13.60
2022-11-25T02:06:38.572Z,16.70
2022-11-25T02:07:39.448Z,12.90
2022-11-25T02:08:40.253Z,12.60
2022-11-25T02:09:41.129Z,12.10
2022-11-25T02:10:41.903Z,14.20
2022-11-25T02:11:42.756Z,11.60
2022-11-25T02:12:43.605Z,12.30
2022-11-25T02:13:44.454Z,11.20
2022-11-25T02:14:45.737Z,14.60
2022-11-25T02:15:46.086Z,10.60
2022-11-25T02:16:46.996Z,10.70
2022-11-25T02:17:47.809Z,12.00
2022-11-25T02:18:48.658Z,11.90
2022-11-25T02:19:49.527Z,12.60
2022-11-25T02:20:50.379Z,12.80
2022-11-25T02:21:51.255Z,10.70
2022-11-25T02:22:52.089Z,9.40
2022-11-25T02:23:52.961Z,11.00
2022-11-25T02:24:54.267Z,11.00
2022-11-25T02:25:54.549Z,11.80
2022-11-25T02:26:55.401Z,14.90
2022-11-25T02:27:56.250Z,17.70
2022-11-25T02:28:57.103Z,9.90
2022-11-25T02:29:57.964Z,10.10
2022-11-25T02:30:58.814Z,12.00
2022-11-25T02:31:59.719Z,15.70
2022-11-25T02:33:00.518Z,9.70
2022-11-25T02:34:01.375Z,11.50
2022-11-25T02:35:02.231Z,11.20
2022-11-25T02:36:03.084Z,13.10
2022-11-25T02:37:03.960Z,11.00
2022-11-25T02:38:04.789Z,13.90
2022-11-25T02:39:05.637Z,10.00
2022-11-25T02:40:06.752Z,12.20
2022-11-25T02:41:07.024Z,9.60
2022-11-25T02:42:07.877Z,12.30
2022-11-25T02:43:08.741Z,11.30
2022-11-25T02:44:09.591Z,11.80
2022-11-25T02:45:10.449Z,9.90
2022-11-25T02:46:11.390Z,13.00
2022-11-25T02:47:12.209Z,10.30
2022-11-25T02:48:13.059Z,13.60
2022-11-25T02:49:13.927Z,12.90
2022-11-25T02:50:14.767Z,14.00
2022-11-25T02:51:15.637Z,14.90
2022-11-25T02:52:16.506Z,11.40
2022-11-25T02:53:17.333Z,11.00
2022-11-25T02:54:18.186Z,12.10
2022-11-25T02:55:19.251Z,14.30
2022-11-25T02:56:20.013Z,11.20
2022-11-25T02:57:20.862Z,10.50
2022-11-25T02:58:21.713Z,13.90
2022-11-25T02:59:22.563Z,9.00
2022-11-25T03:00:23.735Z,13.60
2022-11-25T03:01:24.178Z,10.70
2022-11-25T03:02:25.028Z,11.40
2022-11-25T03:03:25.860Z,12.20
2022-11-25T03:04:26.715Z,11.70
2022-11-25T03:05:27.735Z,10.20
2022-11-25T03:06:28.094Z,12.40
2022-11-25T03:07:29.069Z,9.60
2022-11-25T03:08:29.857Z,11.00
2022-11-25T03:09:30.710Z,12.50
2022-11-25T03:10:31.586Z,10.40
2022-11-25T03:11:32.382Z,11.60
2022-11-25T03:12:33.232Z,12.10
2022-11-25T03:13:34.089Z,13.10
2022-11-25T03:14:35.133Z,9.80
2022-11-25T03:15:35.551Z,11.40
2022-11-25T03:16:36.446Z,13.10
2022-11-25T03:17:37.256Z,14.00
2022-11-25T03:18:38.113Z,11.90
2022-11-25T03:19:38.957Z,10.90
2022-11-25T03:20:39.848Z,12.70
2022-11-25T03:21:40.706Z,12.00
2022-11-25T03:22:41.611Z,11.00
2022-11-25T03:23:42.436Z,11.10
2022-11-25T03:24:43.287Z,12.60
2022-11-25T03:25:44.760Z,13.90
2022-11-25T03:26:45.046Z,13.40
2022-11-25T03:27:45.901Z,11.80
2022-11-25T03:28:46.752Z,15.90
2022-11-25T03:29:47.603Z,12.20
2022-11-25T03:30:48.462Z,13.80
2022-11-25T03:31:49.369Z,10.30
2022-11-25T03:32:50.194Z,10.30
2022-11-25T03:33:51.048Z,12.10
2022-11-25T03:34:51.899Z,10.40
2022-11-25T03:35:52.757Z,12.70
2022-11-25T03:36:53.650Z,7.80
2022-11-25T03:37:54.476Z,11.40
2022-11-25T03:38:55.306Z,10.70
2022-11-25T03:39:56.156Z,10.90
2022-11-25T03:40:57.033Z,10.30
2022-11-25T03:41:57.809Z,11.50
2022-11-25T03:42:58.655Z,10.30
2022-11-25T03:43:59.506Z,9.60
2022-11-25T03:45:00.359Z,9.30
2022-11-25T03:46:01.281Z,13.50
2022-11-25T03:47:02.090Z,11.80
2022-11-25T03:48:02.939Z,10.80
2022-11-25T03:49:03.799Z,10.50
2022-11-25T03:50:04.653Z,9.80
2022-11-25T03:51:05.507Z,11.40
2022-11-25T03:52:06.358Z,13.30
2022-11-25T03:53:07.233Z,11.80
2022-11-25T03:54:08.059Z,10.80
2022-11-25T03:55:08.910Z,12.10
2022-11-25T03:56:10.246Z,13.40
2022-11-25T03:57:10.540Z,12.10
2022-11-25T03:58:11.408Z,17.00
2022-11-25T03:59:12.259Z,10.00
2022-11-25T04:00:13.256Z,12.40
2022-11-25T04:01:13.691Z,15.00
2022-11-25T04:02:14.656Z,15.10
2022-11-25T04:03:15.434Z,11.70
2022-11-25T04:04:16.284Z,14.00
2022-11-25T04:05:17.134Z,16.40
2022-11-25T04:06:17.993Z,13.80
2022-11-25T04:07:18.919Z,14.60
2022-11-25T04:08:19.714Z,13.00
2022-11-25T04:09:20.548Z,13.60
2022-11-25T04:10:21.399Z,17.70
2022-11-25T04:11:22.528Z,12.80
2022-11-25T04:12:22.785Z,10.90
2022-11-25T04:13:23.634Z,13.50
2022-11-25T04:14:24.484Z,15.00
2022-11-25T04:15:25.333Z,13.50
2022-11-25T04:16:26.279Z,11.80
2022-11-25T04:17:27.117Z,12.80
2022-11-25T04:18:27.960Z,12.40
2022-11-25T04:19:28.824Z,13.60
2022-11-25T04:20:29.680Z,12.50
2022-11-25T04:21:30.548Z,12.20
2022-11-25T04:22:31.407Z,11.00
2022-11-25T04:23:32.280Z,12.50
2022-11-25T04:24:33.306Z,12.90
2022-11-25T04:25:33.757Z,10.90
2022-11-25T04:26:34.757Z,12.00
2022-11-25T04:27:35.574Z,11.40
2022-11-25T04:28:36.418Z,12.20
2022-11-25T04:29:37.266Z,12.30
2022-11-25T04:30:38.163Z,10.90
2022-11-25T04:31:39.224Z,11.30
2022-11-25T04:32:39.587Z,11.10
2022-11-25T04:33:40.440Z,9.60
2022-11-25T04:34:41.289Z,10.90
2022-11-25T04:35:42.137Z,11.80
2022-11-25T04:36:43.222Z,12.70
2022-11-25T04:37:43.572Z,13.60
2022-11-25T04:38:44.440Z,13.90
2022-11-25T04:39:45.272Z,12.80
2022-11-25T04:40:46.124Z,8.90
2022-11-25T04:41:47.001Z,14.20
2022-11-25T04:42:47.767Z,11.00
2022-11-25T04:43:48.616Z,12.50
2022-11-25T04:45:13.996Z,12.00
2022-11-25T04:46:12.995Z,12.60
2022-11-25T04:46:52.019Z,12.30
2022-11-25T04:47:51.836Z,13.00
2022-11-25T04:48:52.673Z,12.80
2022-11-25T04:49:53.524Z,12.70
2022-11-25T04:50:54.384Z,14.70
2022-11-25T04:51:55.251Z,13.20
2022-11-25T04:52:56.093Z,15.40
2022-11-25T04:53:56.963Z,16.60
2022-11-25T04:54:57.795Z,12.70
2022-11-25T04:55:58.645Z,20.00
2022-11-25T04:56:59.521Z,18.50
2022-11-25T04:58:00.294Z,13.80
2022-11-25T04:59:01.144Z,16.10
2022-11-25T05:00:01.998Z,14.40
2022-11-25T05:01:02.923Z,16.10
2022-11-25T05:02:03.756Z,15.40
2022-11-25T05:03:04.567Z,12.80
2022-11-25T05:04:05.415Z,17.00
2022-11-25T05:05:06.268Z,16.60
2022-11-25T05:06:07.120Z,14.20
2022-11-25T05:07:07.979Z,16.30
2022-11-25T05:08:08.826Z,15.10
2022-11-25T05:09:09.698Z,13.80
2022-11-25T05:10:10.528Z,15.10
2022-11-25T05:11:11.385Z,17.70
2022-11-25T05:12:12.261Z,17.00
2022-11-25T05:13:13.035Z,15.10
2022-11-25T05:14:13.899Z,13.80
2022-11-25T05:15:14.736Z,12.40
2022-11-25T05:16:15.633Z,14.30
2022-11-25T05:17:16.461Z,18.00
2022-11-25T05:18:17.316Z,15.50
2022-11-25T05:19:18.163Z,13.70
2022-11-25T05:20:19.018Z,16.00
2022-11-25T05:21:19.866Z,14.10
2022-11-25T05:22:20.727Z,13.80
2022-11-25T05:23:21.575Z,10.30
2022-11-25T05:24:22.459Z,14.90
2022-11-25T05:25:23.291Z,13.90
2022-11-25T05:26:24.144Z,14.40
2022-11-25T05:27:25.034Z,15.00
2022-11-25T05:28:25.865Z,12.80
2022-11-25T05:29:26.716Z,11.30
2022-11-25T05:30:27.593Z,15.10
2022-11-25T05:31:28.421Z,14.30
2022-11-25T05:32:29.280Z,14.10
2022-11-25T05:33:30.130Z,12.30
2022-11-25T05:34:30.979Z,14.20
2022-11-25T05:35:31.830Z,16.20
2022-11-25T05:36:32.686Z,16.10
2022-11-25T05:37:33.538Z,17.30
2022-11-25T05:38:34.387Z,14.00
2022-11-25T05:39:35.257Z,17.90
2022-11-25T05:40:36.087Z,16.50
2022-11-25T05:41:36.938Z,13.50
2022-11-25T05:42:37.816Z,11.00
2022-11-25T05:43:38.607Z,10.10
2022-11-25T05:44:39.589Z,17.20
2022-11-25T05:45:40.457Z,11.00
2022-11-25T05:46:41.288Z,13.10
2022-11-25T05:47:42.146Z,15.30
2022-11-25T05:48:42.996Z,13.40
2022-11-25T05:49:43.846Z,15.00
2022-11-25T05:50:44.697Z,17.30
2022-11-25T05:51:45.546Z,15.80
2022-11-25T05:52:46.716Z,12.40
2022-11-25T05:53:47.068Z,15.90
2022-11-25T05:54:47.939Z,15.40
2022-11-25T05:55:48.767Z,14.10
2022-11-25T05:56:49.616Z,17.90
2022-11-25T05:57:50.494Z,14.90
2022-11-25T05:58:51.269Z,14.60
2022-11-25T05:59:52.118Z,15.10
2022-11-25T06:00:52.971Z,10.80
2022-11-25T06:01:53.856Z,12.50
2022-11-25T06:02:54.906Z,11.00
2022-11-25T06:03:55.277Z,11.30
2022-11-25T06:04:56.129Z,15.20
2022-11-25T06:05:56.999Z,15.20
2022-11-25T06:06:57.852Z,19.00
2022-11-25T06:07:58.773Z,14.20
2022-11-25T06:08:59.573Z,16.00
2022-11-25T06:10:07.401Z,13.00
2022-11-25T06:11:01.236Z,11.70
2022-11-25T06:12:02.085Z,14.30
2022-11-25T06:13:03.010Z,11.30
2022-11-25T06:14:03.779Z,11.00
2022-11-25T06:15:04.626Z,15.10
2022-11-25T06:16:07.831Z,19.00
2022-11-25T06:17:06.286Z,13.40
2022-11-25T06:18:07.147Z,13.10
2022-11-25T06:19:08.000Z,13.80
2022-11-25T06:20:08.858Z,15.20
2022-11-25T06:21:09.714Z,15.00
2022-11-25T06:22:10.563Z,11.70
2022-11-25T06:23:11.714Z,16.20
2022-11-25T06:24:12.064Z,14.10
2022-11-25T06:25:12.951Z,17.40
2022-11-25T06:26:13.780Z,14.70
2022-11-25T06:27:14.810Z,10.20
2022-11-25T06:28:15.283Z,11.40
2022-11-25T06:29:16.049Z,14.50
2022-11-25T06:30:16.901Z,15.90
2022-11-25T06:31:17.836Z,14.50
2022-11-25T06:32:18.690Z,16.40
2022-11-25T06:33:19.712Z,14.10
2022-11-25T06:34:20.061Z,18.20
2022-11-25T06:35:20.912Z,17.50
2022-11-25T06:36:21.762Z,16.60
2022-11-25T06:37:22.614Z,18.80
2022-11-25T06:38:23.484Z,17.20
2022-11-25T06:39:24.323Z,16.10
2022-11-25T06:40:25.299Z,21.40
2022-11-25T06:41:26.060Z,21.90
2022-11-25T06:42:26.910Z,19.30
2022-11-25T06:43:28.226Z,23.60
2022-11-25T06:44:28.490Z,24.60
2022-11-25T06:45:29.382Z,28.50
2022-11-25T06:46:30.318Z,24.60
2022-11-25T06:47:31.100Z,20.20
2022-11-25T06:48:31.961Z,20.20
2022-11-25T06:49:32.810Z,24.40
2022-11-25T06:50:33.661Z,19.80
2022-11-25T06:51:34.512Z,21.50
2022-11-25T06:52:35.362Z,18.70
2022-11-25T06:53:36.225Z,23.10
2022-11-25T06:54:37.426Z,34.70
2022-11-25T06:55:37.900Z,14.60
2022-11-25T06:56:38.732Z,28.60
2022-11-25T06:57:39.588Z,28.80
2022-11-25T06:58:40.729Z,25.10
2022-11-25T06:59:40.987Z,24.10
2022-11-25T07:00:41.843Z,19.50
2022-11-25T07:01:42.739Z,24.40
2022-11-25T07:02:48.203Z,23.20
2022-11-25T07:03:45.708Z,21.40
2022-11-25T07:04:45.071Z,23.40
2022-11-25T07:05:45.923Z,25.70
2022-11-25T07:06:46.774Z,31.90
2022-11-25T07:07:47.657Z,23.20
2022-11-25T07:08:48.482Z,22.10
2022-11-25T07:09:49.331Z,21.10
2022-11-25T07:10:50.202Z,22.90
2022-11-25T07:11:51.033Z,24.20
2022-11-25T07:12:51.888Z,29.60
2022-11-25T07:13:53.225Z,21.00
2022-11-25T07:14:53.527Z,29.00
2022-11-25T07:15:54.433Z,30.40
2022-11-25T07:16:55.273Z,30.00
2022-11-25T07:17:56.125Z,28.00
2022-11-25T07:18:56.985Z,25.40
2022-11-25T07:19:57.836Z,26.30
2022-11-25T07:20:58.687Z,19.80
2022-11-25T07:21:59.538Z,18.60
2022-11-25T07:23:00.391Z,26.60
2022-11-25T07:24:01.253Z,17.50
2022-11-25T07:25:02.109Z,22.50
2022-11-25T07:26:02.978Z,26.10
2022-11-25T07:27:03.811Z,25.50
2022-11-25T07:28:04.662Z,23.80
2022-11-25T07:29:13.918Z,20.60
2022-11-25T07:31:27.077Z,26.80
2022-11-25T07:32:10.794Z,19.40
2022-11-25T07:33:08.817Z,19.70
2022-11-25T07:34:09.633Z,22.40
2022-11-25T07:35:10.511Z,26.50
2022-11-25T07:36:11.357Z,22.90
2022-11-25T07:37:12.211Z,28.00
2022-11-25T07:38:13.068Z,26.20
2022-11-25T07:39:14.210Z,22.00
2022-11-25T07:40:14.576Z,22.20
2022-11-25T07:41:15.458Z,26.30
2022-11-25T07:42:16.276Z,26.70
2022-11-25T07:43:17.130Z,26.20
2022-11-25T07:44:18.015Z,32.00
2022-11-25T07:45:18.790Z,31.40
2022-11-25T07:46:25.005Z,26.60
2022-11-25T07:47:21.386Z,24.60
2022-11-25T07:48:21.243Z,24.80
2022-11-25T07:49:22.110Z,22.60
2022-11-25T07:50:22.953Z,28.10
2022-11-25T07:51:23.803Z,25.50
2022-11-25T07:52:24.653Z,25.80
2022-11-25T07:53:25.505Z,29.40
2022-11-25T07:54:26.363Z,28.20
2022-11-25T07:55:27.214Z,28.00
2022-11-25T07:56:28.089Z,26.40
2022-11-25T07:57:28.945Z,25.80
2022-11-25T07:58:29.799Z,25.10
2022-11-25T07:59:30.719Z,25.40
2022-11-25T08:00:31.494Z,26.00
2022-11-25T08:01:32.385Z,32.20
2022-11-25T08:02:33.237Z,24.80
2022-11-25T08:03:34.082Z,24.50
2022-11-25T08:04:34.941Z,25.70
2022-11-25T08:05:35.817Z,22.30
2022-11-25T08:06:36.669Z,26.30
2022-11-25T08:07:37.587Z,21.40
2022-11-25T08:08:38.410Z,21.20
2022-11-25T08:09:39.630Z,27.60
2022-11-25T08:10:40.033Z,28.50
2022-11-25T08:11:40.909Z,22.30
2022-11-25T08:12:41.736Z,29.40
2022-11-25T08:13:42.590Z,16.90
2022-11-25T08:14:43.466Z,25.80
2022-11-25T08:15:44.278Z,25.90
2022-11-25T08:16:45.097Z,22.20
2022-11-25T08:17:45.962Z,22.10
2022-11-25T08:18:46.825Z,24.80
2022-11-25T08:19:47.701Z,27.70
2022-11-25T08:20:48.556Z,21.90
2022-11-25T08:21:49.405Z,26.70
2022-11-25T08:22:50.256Z,24.10
2022-11-25T08:23:51.107Z,27.60
2022-11-25T08:24:51.971Z,21.50
2022-11-25T08:25:52.821Z,32.00
2022-11-25T08:26:53.709Z,23.90
2022-11-25T08:27:54.535Z,27.20
2022-11-25T08:28:55.388Z,29.50
2022-11-25T08:29:56.742Z,23.90
2022-11-25T08:30:57.041Z,28.20
2022-11-25T08:31:57.859Z,26.20
2022-11-25T08:32:58.717Z,29.80
2022-11-25T08:33:59.591Z,21.90
2022-11-25T08:35:00.452Z,19.80
2022-11-25T08:36:22.297Z,27.80
2022-11-25T08:37:02.145Z,24.90
2022-11-25T08:38:02.995Z,25.80
2022-11-25T08:39:12.630Z,30.90
2022-11-25T08:40:05.708Z,22.60
2022-11-25T08:41:05.555Z,27.30
2022-11-25T08:42:06.430Z,20.50
2022-11-25T08:43:07.259Z,20.30
2022-11-25T08:44:08.112Z,23.10
2022-11-25T08:45:09.223Z,22.30
2022-11-25T08:46:09.569Z,22.20
2022-11-25T08:47:10.379Z,25.70
2022-11-25T08:48:11.230Z,25.10
2022-11-25T08:49:12.092Z,24.30
2022-11-25T08:50:13.203Z,24.80
2022-11-25T08:51:13.553Z,36.10
2022-11-25T08:52:14.406Z,25.80
2022-11-25T08:53:15.258Z,26.70
2022-11-25T08:54:16.112Z,24.20
2022-11-25T08:55:16.976Z,24.00
2022-11-25T08:56:20.388Z,22.80
2022-11-25T08:57:19.588Z,14.90
2022-11-25T08:58:19.423Z,17.00
2022-11-25T08:59:20.272Z,18.20
2022-11-25T09:00:21.157Z,16.10
2022-11-25T09:01:21.954Z,16.40
2022-11-25T09:02:22.857Z,12.50
2022-11-25T09:03:23.698Z,14.30
2022-11-25T09:04:24.526Z,12.20
2022-11-25T09:05:25.387Z,13.40
2022-11-25T09:06:26.235Z,14.30
2022-11-25T09:07:30.721Z,13.60
2022-11-25T09:08:27.801Z,18.50
2022-11-25T09:09:28.652Z,14.00
2022-11-25T09:10:29.546Z,14.50
2022-11-25T09:11:30.465Z,13.20
2022-11-25T09:12:31.322Z,15.40
2022-11-25T09:13:32.235Z,13.60
2022-11-25T09:14:33.016Z,13.10
2022-11-25T09:15:34.621Z,15.00
2022-11-25T09:16:34.458Z,15.10
2022-11-25T09:17:35.284Z,13.50
2022-11-25T09:18:36.133Z,11.50
2022-11-25T09:19:37.175Z,15.60
2022-11-25T09:20:37.531Z,13.10
2022-11-25T09:21:38.386Z,15.60
2022-11-25T09:22:39.239Z,15.40
2022-11-25T09:23:40.090Z,13.40
2022-11-25T09:24:40.938Z,10.70
2022-11-25T09:25:41.801Z,11.10
2022-11-25T09:26:42.646Z,12.20
2022-11-25T09:27:43.518Z,11.10
2022-11-25T09:28:44.346Z,10.60
2022-11-25T09:29:45.272Z,10.40
2022-11-25T09:30:46.229Z,13.00
2022-11-25T09:31:50.135Z,11.80
2022-11-25T09:32:48.739Z,14.50
2022-11-25T09:33:48.589Z,12.40
2022-11-25T09:34:49.592Z,10.50
2022-11-25T09:35:49.951Z,10.50
2022-11-25T09:36:50.818Z,10.90
2022-11-25T09:37:51.668Z,12.80
2022-11-25T09:38:52.518Z,10.60
2022-11-25T09:39:53.368Z,9.80
2022-11-25T09:40:54.229Z,10.80
2022-11-25T09:41:55.079Z,8.70
2022-11-25T09:42:55.948Z,11.80
2022-11-25T09:43:56.780Z,10.20
2022-11-25T09:44:57.630Z,8.80
2022-11-25T09:45:58.751Z,10.20
2022-11-25T09:46:59.253Z,8.90
2022-11-25T09:48:00.070Z,8.20
2022-11-25T09:49:00.921Z,12.70
2022-11-25T09:50:01.770Z,9.10
2022-11-25T09:51:02.634Z,11.40
2022-11-25T09:52:03.482Z,10.70
2022-11-25T09:53:04.334Z,11.30
2022-11-25T09:54:05.184Z,8.00
2022-11-25T09:55:06.035Z,10.90
2022-11-25T09:56:07.201Z,6.90
2022-11-25T09:57:07.552Z,10.10
2022-11-25T09:58:08.463Z,8.50
2022-11-25T09:59:09.252Z,8.10
2022-11-25T10:00:10.106Z,10.70
2022-11-25T10:01:11.326Z,9.50
2022-11-25T10:02:11.647Z,7.70
2022-11-25T10:03:12.551Z,7.90
2022-11-25T10:04:13.365Z,8.60
2022-11-25T10:05:14.200Z,10.80
2022-11-25T10:06:15.159Z,10.50
2022-11-25T10:07:15.968Z,10.10
2022-11-25T10:08:16.825Z,8.50
2022-11-25T10:09:17.672Z,10.60
2022-11-25T10:10:18.524Z,10.10
2022-11-25T10:11:19.381Z,8.90
2022-11-25T10:12:20.234Z,6.90
2022-11-25T10:13:21.111Z,8.40
2022-11-25T10:14:21.942Z,7.60
2022-11-25T10:15:22.804Z,8.50
2022-11-25T10:16:23.757Z,7.90
2022-11-25T10:17:24.544Z,8.00
2022-11-25T10:18:25.423Z,8.80
2022-11-25T10:19:26.281Z,8.90
2022-11-25T10:20:27.132Z,9.70
2022-11-25T10:21:28.206Z,10.10
2022-11-25T10:22:28.554Z,8.80
2022-11-25T10:23:29.403Z,8.00
2022-11-25T10:24:30.268Z,10.30
2022-11-25T10:25:31.117Z,7.60
2022-11-25T10:26:31.975Z,8.10
2022-11-25T10:27:32.825Z,10.90
2022-11-25T10:28:33.696Z,7.80
2022-11-25T10:29:34.547Z,8.20
2022-11-25T10:30:35.396Z,8.90
2022-11-25T10:31:36.929Z,8.60
2022-11-25T10:32:36.737Z,9.80
2022-11-25T10:33:37.595Z,8.00
2022-11-25T10:34:38.677Z,6.50
2022-11-25T10:35:39.176Z,9.20
2022-11-25T10:36:40.024Z,8.00
2022-11-25T10:37:40.871Z,9.60
2022-11-25T10:38:41.726Z,8.40
2022-11-25T10:39:42.573Z,9.40
2022-11-25T10:40:43.424Z,12.20
2022-11-25T10:41:44.285Z,9.90
2022-11-25T10:42:45.145Z,8.60
2022-11-25T10:43:46.025Z,8.70
2022-11-25T10:44:46.851Z,7.80
2022-11-25T10:45:47.699Z,7.60
2022-11-25T10:47:13.010Z,7.60
2022-11-25T10:47:50.419Z,10.40
2022-11-25T10:48:50.264Z,5.70
2022-11-25T10:49:51.111Z,8.00
2022-11-25T10:50:51.968Z,9.00
2022-11-25T10:51:52.820Z,8.60
2022-11-25T10:52:53.670Z,8.30
2022-11-25T10:53:54.519Z,11.10
2022-11-25T10:54:55.389Z,10.90
2022-11-25T10:55:56.247Z,11.80
2022-11-25T10:56:57.207Z,10.20
2022-11-25T10:57:58.088Z,9.00
2022-11-25T10:58:58.970Z,10.10
2022-11-25T10:59:59.832Z,11.50
2022-11-25T11:01:00.668Z,10.60
2022-11-25T11:02:01.608Z,9.70
2022-11-25T11:03:02.525Z,10.60
2022-11-25T11:04:03.318Z,9.70
2022-11-25T11:05:04.176Z,7.50
2022-11-25T11:06:05.073Z,9.20
2022-11-25T11:07:05.969Z,8.70
2022-11-25T11:08:06.871Z,9.40
2022-11-25T11:09:07.779Z,10.20
2022-11-25T11:10:08.628Z,10.90
2022-11-25T11:11:09.480Z,8.90
2022-11-25T11:12:10.712Z,8.10
2022-11-25T11:13:11.064Z,11.10
2022-11-25T11:14:11.944Z,9.50
2022-11-25T11:15:12.787Z,10.20
2022-11-25T11:16:13.693Z,10.70
2022-11-25T11:17:14.514Z,9.60
2022-11-25T11:18:15.286Z,8.40
2022-11-25T11:19:16.137Z,10.90
2022-11-25T11:20:16.985Z,10.50
2022-11-25T11:21:17.849Z,10.60
2022-11-25T11:22:18.708Z,12.60
2022-11-25T11:23:19.556Z,8.80
2022-11-25T11:24:20.406Z,9.50
2022-11-25T11:25:21.268Z,9.60
2022-11-25T11:26:22.124Z,9.90
2022-11-25T11:27:22.982Z,7.20
2022-11-25T11:28:23.843Z,10.40
2022-11-25T11:29:24.715Z,11.10
2022-11-25T11:30:25.547Z,10.20
2022-11-25T11:31:26.456Z,12.60
2022-11-25T11:32:27.757Z,11.90
2022-11-25T11:33:28.025Z,9.80
2022-11-25T11:34:28.885Z,11.20
2022-11-25T11:35:29.735Z,8.20
2022-11-25T11:36:30.582Z,11.30
2022-11-25T11:37:31.441Z,9.90
2022-11-25T11:38:32.292Z,10.00
2022-11-25T11:39:33.140Z,10.90
2022-11-25T11:40:33.998Z,9.40
2022-11-25T11:41:34.846Z,11.80
2022-11-25T11:42:35.704Z,8.70
2022-11-25T11:43:36.554Z,11.60
2022-11-25T11:44:37.670Z,10.40
2022-11-25T11:45:38.133Z,9.90
2022-11-25T11:46:39.012Z,10.10
2022-11-25T11:47:39.871Z,10.70
2022-11-25T11:48:40.651Z,11.30
2022-11-25T11:49:41.500Z,9.70
2022-11-25T11:50:42.364Z,10.80
2022-11-25T11:51:43.213Z,9.60
2022-11-25T11:52:44.074Z,11.50
2022-11-25T11:53:44.922Z,10.50
2022-11-25T11:54:45.775Z,10.60
2022-11-25T11:56:00.312Z,10.50
2022-11-25T11:56:53.585Z,10.30
2022-11-25T11:57:49.210Z,8.00
2022-11-25T11:58:49.059Z,9.40
2022-11-25T11:59:49.943Z,10.80
2022-11-25T12:00:50.778Z,14.00
2022-11-25T12:01:51.705Z,11.00
2022-11-25T12:02:52.587Z,9.30
2022-11-25T12:03:54.549Z,10.00
2022-11-25T12:04:53.941Z,12.50
2022-11-25T12:05:54.791Z,11.70
2022-11-25T12:06:55.638Z,9.50
2022-11-25T12:07:56.554Z,11.60
2022-11-25T12:08:57.346Z,10.90
2022-11-25T12:09:58.195Z,10.50
2022-11-25T12:10:59.065Z,10.10
2022-11-25T12:11:59.916Z,13.40
2022-11-25T12:13:00.773Z,11.70
2022-11-25T12:14:01.636Z,12.70
2022-11-25T12:15:02.491Z,11.70
2022-11-25T12:16:03.365Z,9.20
2022-11-25T12:17:04.170Z,10.10
2022-11-25T12:18:05.042Z,8.30
2022-11-25T12:19:05.836Z,11.60
2022-11-25T12:20:06.688Z,11.50
2022-11-25T12:21:07.539Z,11.40
2022-11-25T12:22:08.422Z,11.60
2022-11-25T12:23:09.289Z,11.10
2022-11-25T12:24:10.133Z,10.40
2022-11-25T12:25:10.981Z,10.40
2022-11-25T12:26:11.832Z,12.30
2022-11-25T12:27:12.686Z,12.80
2022-11-25T12:28:13.541Z,7.80
2022-11-25T12:29:14.390Z,10.60
2022-11-25T12:30:15.273Z,9.90
2022-11-25T12:31:16.166Z,10.50
2022-11-25T12:32:16.983Z,9.80
2022-11-25T12:33:17.870Z,13.10
2022-11-25T12:34:18.638Z,10.70
2022-11-25T12:35:19.490Z,10.60
2022-11-25T12:36:20.343Z,12.10
2022-11-25T12:37:21.204Z,13.00
2022-11-25T12:38:22.062Z,12.10
2022-11-25T12:39:22.923Z,10.80
2022-11-25T12:40:23.775Z,14.20
2022-11-25T12:41:24.637Z,10.90
2022-11-25T12:42:25.492Z,12.00
2022-11-25T12:43:26.350Z,11.60
2022-11-25T12:44:27.199Z,12.60
2022-11-25T12:45:28.086Z,10.40
2022-11-25T12:46:28.903Z,11.00
2022-11-25T12:47:29.759Z,10.00
2022-11-25T12:48:30.632Z,11.50
2022-11-25T12:49:31.398Z,10.60
2022-11-25T12:50:32.247Z,15.00
2022-11-25T12:51:33.099Z,12.20
2022-11-25T12:52:33.948Z,9.20
2022-11-25T12:53:34.815Z,11.60
2022-11-25T12:54:35.989Z,12.30
2022-11-25T12:55:36.430Z,9.70
2022-11-25T12:56:37.281Z,14.80
2022-11-25T12:57:38.132Z,13.30
2022-11-25T12:58:39.049Z,14.20
2022-11-25T12:59:39.879Z,10.70
2022-11-25T13:00:42.861Z,12.00
2022-11-25T13:01:41.570Z,13.10
2022-11-25T13:02:42.079Z,9.90
2022-11-25T13:03:42.949Z,9.90
2022-11-25T13:04:43.720Z,10.80
2022-11-25T13:05:44.575Z,11.30
2022-11-25T13:06:45.416Z,12.60
2022-11-25T13:07:46.328Z,14.60
2022-11-25T13:08:47.145Z,11.50